Terminal Aerodrome Forecast
Issued by NWS

Home | Current Version | Previous Version | Text Only | Print | Product List | Glossary On
Versions: 1 2 3 4 5 6 7 8 9 10 11 12 13 14 15 16
992
FTUS42 TJSJ 290544
TAFJSJ
TAF
TJSJ 290544Z 2906/3006 09015G25KT P6SM VCSH SCT020 BKN060
     FM291300 09020G30KT P6SM VCSH SCT030 BKN050 OVC070
     FM291630 09025G35KT P6SM VCTS SCT020CB BKN040 OVC060
     FM292200 09012KT P6SM VCSH SCT020=

USA.gov is the U.S. government's official web portal to all federal, state and local government web resources and services.